Time;durP1;ratioP1;P1;durP2;ratioP2;P2;SDS_P1;SDS_P2;PMS_P1;PMS_P2;Temp;Humidity;BMP_temperature;BMP_pressure;BME280_temperature;BME280_humidity;BME280_pressure;Samples;Min_cycle;Max_cycle;Signal;HPM_P1;HPM_P2
2024/03/16 08:32:21;;;;;;;2.42;1.00;;;;;;;8.77;100.00;96726.94;2107926;27;20913;-67
2024/03/16 09:01:12;;;;;;;2.42;0.90;;;;;;;8.87;100.00;96766.53;2108231;27;20581;-63
2024/03/16 09:05:34;;;;;;;1.42;0.60;;;;;;;9.00;100.00;96778.19;2108246;27;20521;-60
2024/03/16 09:06:38;;;;;;;4.00;0.90;;;;;;;8.93;100.00;96769.75;2105924;28;20198;-67
2024/03/16 09:09:11;;;;;;;5.40;0.80;;;;;;;9.04;100.00;96769.38;2106758;27;20537;-67
2024/03/16 09:11:49;;;;;;;1.80;1.08;;;;;;;8.99;100.00;96758.28;2113440;27;20539;-65
2024/03/16 09:14:06;;;;;;;6.57;0.90;;;;;;;9.20;100.00;96763.59;2097858;27;21166;-67
2024/03/16 09:16:25;;;;;;;2.70;1.20;;;;;;;9.46;100.00;96773.03;2106365;27;20517;-65
2024/03/16 09:17:27;;;;;;;7.80;0.80;;;;;;;9.44;100.00;96774.84;2102534;28;20194;-66
2024/03/16 09:22:25;;;;;;;3.35;0.80;;;;;;;9.30;99.53;96791.84;2081189;28;20623;-67
2024/03/16 09:23:27;;;;;;;2.55;0.85;;;;;;;9.24;98.99;96781.69;2081953;28;20204;-66
2024/03/16 09:26:03;;;;;;;4.45;1.00;;;;;;;9.35;100.00;96793.44;2107566;27;20528;-61
2024/03/16 09:28:21;;;;;;;1.98;0.77;;;;;;;9.30;98.37;96773.59;2098532;27;21112;-63
2024/03/16 09:30:32;;;;;;;5.65;1.10;;;;;;;9.40;98.68;96773.28;2106957;27;20876;-63
2024/03/16 09:31:34;;;;;;;3.45;0.90;;;;;;;9.60;99.10;96780.34;2106046;28;20226;-62
2024/03/16 09:32:36;;;;;;;8.50;1.10;;;;;;;9.92;99.03;96788.66;2091917;28;20207;-62
2024/03/16 09:33:38;;;;;;;4.38;0.80;;;;;;;10.03;98.69;96789.06;2081528;28;20679;-63
2024/03/16 09:34:40;;;;;;;5.30;0.90;;;;;;;9.84;98.11;96783.75;2081449;28;21071;-63
2024/03/16 09:35:42;;;;;;;2.20;0.90;;;;;;;9.81;98.50;96791.66;2081462;28;20288;-63
2024/03/16 09:38:14;;;;;;;2.15;1.10;;;;;;;9.61;96.09;96776.78;2100893;27;20551;-63
2024/03/16 09:39:16;;;;;;;4.07;0.95;;;;;;;9.66;95.44;96805.31;2094928;28;20862;-62
2024/03/16 09:48:17;;;;;;;3.63;0.75;;;;;;;9.25;99.25;96798.16;2101459;27;20521;-62
2024/03/16 09:49:17;;;;;;;2.63;0.70;;;;;;;9.31;98.38;96806.56;2089269;28;20204;-62
2024/03/16 09:50:26;;;;;;;3.00;0.70;;;;;;;9.44;99.84;96813.94;2081755;28;20205;-63
2024/03/16 09:51:27;;;;;;;1.30;0.70;;;;;;;9.43;98.30;96813.09;2079856;28;20207;-63
2024/03/16 09:52:34;;;;;;;2.60;0.60;;;;;;;9.41;98.39;96827.94;2080013;28;20214;-63
2024/03/16 09:53:34;;;;;;;1.10;0.60;;;;;;;9.54;97.90;96819.66;2075919;28;20273;-62
2024/03/16 09:54:37;;;;;;;1.40;0.60;;;;;;;9.54;98.04;96815.28;2074147;28;20260;-62
2024/03/16 09:55:37;;;;;;;1.40;0.60;;;;;;;9.49;97.31;96819.84;2076111;28;20318;-63
2024/03/16 09:56:38;;;;;;;1.13;0.60;;;;;;;9.47;98.08;96813.81;2075708;28;20280;-63
2024/03/16 09:57:40;;;;;;;3.17;0.70;;;;;;;9.57;98.22;96822.16;2067228;28;20243;-62
2024/03/16 09:58:40;;;;;;;2.55;0.60;;;;;;;9.47;97.14;96817.28;2079711;28;20450;-62
2024/03/16 09:59:48;;;;;;;1.57;0.70;;;;;;;9.47;97.65;96813.81;2081605;28;20743;-62
2024/03/16 10:00:51;;;;;;;1.77;0.70;;;;;;;9.46;97.14;96814.75;2080504;28;20208;-61
2024/03/16 10:01:51;;;;;;;3.08;0.60;;;;;;;9.55;98.52;96817.00;2072662;28;20205;-61
2024/03/16 10:02:52;;;;;;;4.10;0.70;;;;;;;9.53;98.16;96818.81;2072200;28;20276;-62
2024/03/16 10:03:53;;;;;;;3.03;0.60;;;;;;;9.47;98.62;96821.63;2078465;28;20205;-61
2024/03/16 10:04:53;;;;;;;3.30;1.23;;;;;;;9.34;97.80;96817.81;2078336;28;20235;-61
2024/03/16 10:05:54;;;;;;;2.05;0.85;;;;;;;9.40;99.16;96823.63;2079885;28;20579;-61
2024/03/16 10:06:55;;;;;;;2.17;0.60;;;;;;;9.41;99.69;96827.09;2076279;28;20258;-61
2024/03/16 10:07:56;;;;;;;2.15;0.70;;;;;;;9.37;100.00;96828.09;2077121;28;20229;-62
2024/03/16 10:09:10;;;;;;;1.27;0.70;;;;;;;9.50;100.00;96824.16;2070802;28;20210;-62
2024/03/16 10:10:17;;;;;;;1.55;0.70;;;;;;;9.58;100.00;96829.91;2075231;28;20447;-61
2024/03/16 10:11:18;;;;;;;4.95;0.77;;;;;;;9.53;100.00;96828.41;2081565;28;20204;-61
2024/03/16 10:13:39;;;;;;;1.48;0.88;;;;;;;9.46;100.00;96817.34;2110223;27;20576;-60
2024/03/16 10:14:40;;;;;;;5.22;0.60;;;;;;;9.49;100.00;96830.25;2102828;28;20211;-62
2024/03/16 10:15:47;;;;;;;2.37;0.67;;;;;;;9.57;100.00;96832.56;2094593;28;20198;-63
2024/03/16 10:18:01;;;;;;;1.00;0.60;;;;;;;9.69;100.00;96829.50;2101473;27;20568;-60
2024/03/16 10:20:33;;;;;;;2.30;0.80;;;;;;;9.67;98.86;96833.09;2106867;27;20920;-60
2024/03/16 10:22:52;;;;;;;1.45;0.70;;;;;;;9.44;98.06;96825.22;2104356;27;20533;-62
2024/03/16 10:25:16;;;;;;;1.63;0.70;;;;;;;9.43;97.59;96844.38;2090037;27;21081;-61
2024/03/16 10:26:16;;;;;;;1.13;0.50;;;;;;;9.34;96.80;96836.06;2073185;28;20205;-61
2024/03/16 10:27:18;;;;;;;2.13;0.80;;;;;;;9.48;97.20;96852.88;2067402;28;20288;-63
2024/03/16 10:28:18;;;;;;;1.77;0.70;;;;;;;9.62;97.92;96851.50;2068659;28;20728;-62
2024/03/16 10:29:21;;;;;;;2.23;0.80;;;;;;;9.66;97.28;96853.09;2070964;28;20638;-62
2024/03/16 10:30:23;;;;;;;1.23;0.70;;;;;;;9.73;97.12;96853.72;2070729;28;20210;-65
2024/03/16 10:31:23;;;;;;;1.58;0.70;;;;;;;9.73;96.82;96845.91;2074994;28;20209;-62
2024/03/16 10:32:24;;;;;;;1.77;1.00;;;;;;;9.63;96.86;96833.19;2065879;28;20302;-63
2024/03/16 10:33:26;;;;;;;2.85;1.00;;;;;;;9.79;96.64;96843.06;2058780;28;20466;-62
2024/03/16 10:34:29;;;;;;;1.10;0.70;;;;;;;9.72;94.77;96829.38;2070702;28;20210;-62
2024/03/16 10:35:33;;;;;;;1.77;1.05;;;;;;;9.90;95.79;96858.28;2073258;28;20220;-63
2024/03/16 10:36:35;;;;;;;4.88;1.05;;;;;;;9.78;97.32;96847.41;2069437;28;20228;-63
2024/03/16 10:37:38;;;;;;;4.47;0.98;;;;;;;9.62;95.78;96860.19;2069378;28;20229;-62
2024/03/16 10:40:16;;;;;;;3.15;1.27;;;;;;;9.47;98.00;96853.78;2106446;27;20532;-63
2024/03/16 10:42:48;;;;;;;3.67;2.20;;;;;;;9.38;99.59;96858.47;2103211;27;21190;-60
2024/03/16 10:45:14;;;;;;;1.85;0.90;;;;;;;9.39;100.00;96857.56;2106376;27;20521;-62
2024/03/16 10:46:15;;;;;;;3.20;1.40;;;;;;;9.40;100.00;96867.09;2096754;28;20210;-62
2024/03/16 10:47:16;;;;;;;3.60;1.13;;;;;;;9.35;100.00;96869.88;2083953;28;20231;-63
2024/03/16 10:48:18;;;;;;;4.87;2.07;;;;;;;9.37;99.48;96862.84;2073211;28;20217;-62
2024/03/16 10:49:18;;;;;;;3.60;1.80;;;;;;;9.35;99.71;96864.66;2069011;28;20218;-63
2024/03/16 10:50:27;;;;;;;5.63;2.70;;;;;;;9.50;100.00;96871.06;2069803;28;20284;-68
2024/03/16 10:51:27;;;;;;;2.67;1.35;;;;;;;9.60;100.00;96877.66;2074773;28;20220;-68
2024/03/16 10:52:28;;;;;;;1.93;1.20;;;;;;;9.66;100.00;96854.84;2072095;28;20206;-68
2024/03/16 10:53:29;;;;;;;2.23;1.13;;;;;;;9.87;100.00;96869.69;2075325;28;20237;-68
2024/03/16 10:54:30;;;;;;;5.13;0.80;;;;;;;10.09;99.54;96867.09;2074581;28;20919;-69
2024/03/16 10:55:33;;;;;;;1.87;0.87;;;;;;;10.75;98.15;96873.19;2082993;28;20345;-68
2024/03/16 10:56:34;;;;;;;4.45;0.88;;;;;;;12.24;91.91;96867.50;2076333;28;20902;-68
2024/03/16 10:57:36;;;;;;;1.73;0.80;;;;;;;12.49;88.91;96863.69;2075453;28;20262;-68
2024/03/16 10:58:37;;;;;;;6.60;1.00;;;;;;;12.72;84.08;96862.53;2085473;28;20211;-69
2024/03/16 10:59:42;;;;;;;2.70;1.40;;;;;;;13.88;81.85;96848.72;2085628;28;20212;-68
2024/03/16 11:00:44;;;;;;;1.63;0.80;;;;;;;14.56;77.59;96855.41;2083863;28;20504;-69
2024/03/16 11:01:47;;;;;;;3.67;0.93;;;;;;;14.75;76.08;96851.78;2081197;28;20212;-69
2024/03/16 11:02:50;;;;;;;1.23;0.70;;;;;;;13.30;77.21;96861.34;2072351;28;20232;-68
2024/03/16 11:03:55;;;;;;;1.52;0.70;;;;;;;13.39;78.13;96855.69;2078746;28;20983;-68
2024/03/16 11:04:55;;;;;;;1.95;0.80;;;;;;;12.56;78.72;96868.56;2082538;28;20227;-68
2024/03/16 11:06:09;;;;;;;1.50;0.63;;;;;;;13.00;79.02;96858.53;2083219;28;20219;-68
2024/03/16 11:07:14;;;;;;;1.20;0.60;;;;;;;12.83;79.40;96859.41;2085563;28;20278;-68
2024/03/16 11:08:14;;;;;;;3.80;1.02;;;;;;;12.49;80.33;96864.53;2072010;28;20248;-68
2024/03/16 11:09:27;;;;;;;2.10;0.80;;;;;;;12.49;81.77;96868.94;2066605;28;20487;-69
2024/03/16 11:10:38;;;;;;;2.20;0.90;;;;;;;12.08;81.80;96862.13;2080746;28;20202;-70
2024/03/16 11:11:40;;;;;;;2.25;0.90;;;;;;;11.79;82.74;96874.78;2080718;28;20205;-68
2024/03/16 11:12:45;;;;;;;3.38;0.90;;;;;;;11.74;83.38;96868.91;2074566;28;20225;-68
2024/03/16 11:13:54;;;;;;;1.75;0.70;;;;;;;11.50;84.69;96878.72;2085078;28;20205;-69
2024/03/16 11:15:40;;;;;;;2.42;0.65;;;;;;;11.13;86.50;96873.34;2083246;28;20692;-67
2024/03/16 11:16:50;;;;;;;1.73;0.80;;;;;;;10.52;89.30;96869.78;2083340;28;20208;-63
2024/03/16 11:17:50;;;;;;;1.40;0.70;;;;;;;10.36;90.53;96874.78;2070412;28;20217;-63
2024/03/16 11:19:01;;;;;;;1.87;0.60;;;;;;;10.18;92.88;96878.06;2072795;28;20217;-63
2024/03/16 11:20:34;;;;;;;1.70;0.75;;;;;;;10.07;95.53;96888.94;2086260;28;20611;-64
2024/03/16 11:21:37;;;;;;;3.85;0.70;;;;;;;9.99;94.53;96883.16;2080682;28;20217;-62
2024/03/16 11:22:37;;;;;;;1.40;0.80;;;;;;;9.79;94.58;96867.38;2074327;28;20264;-62
2024/03/16 11:23:40;;;;;;;1.70;0.80;;;;;;;9.87;97.18;96869.69;2075736;28;20210;-62
2024/03/16 11:24:41;;;;;;;5.70;0.85;;;;;;;10.05;98.42;96878.56;2074721;28;20225;-63
2024/03/16 11:25:41;;;;;;;2.37;0.90;;;;;;;10.27;96.33;96882.94;2080966;28;20246;-68
2024/03/16 11:26:45;;;;;;;1.83;0.80;;;;;;;10.54;96.24;96883.63;2084250;28;20806;-69
2024/03/16 11:27:49;;;;;;;3.53;1.05;;;;;;;10.61;93.98;96872.03;2068459;28;20217;-69
2024/03/16 11:28:51;;;;;;;1.40;0.70;;;;;;;10.97;92.76;96878.38;2070395;28;20685;-69
2024/03/16 11:29:58;;;;;;;1.95;0.82;;;;;;;11.53;93.49;96883.78;2077644;28;20217;-69
2024/03/16 11:31:24;;;;;;;3.70;1.08;;;;;;;11.93;90.90;96885.47;2077965;28;20217;-69
2024/03/16 11:32:25;;;;;;;1.40;0.70;;;;;;;12.82;84.62;96861.16;2080840;28;20258;-69
2024/03/16 11:33:25;;;;;;;3.03;1.20;;;;;;;13.16;85.05;96882.22;2070191;28;20229;-63
2024/03/16 11:34:26;;;;;;;4.27;2.03;;;;;;;13.89;82.72;96876.66;2072017;28;20205;-63
2024/03/16 11:35:27;;;;;;;2.60;1.03;;;;;;;13.34;81.47;96886.47;2082170;28;20200;-63
2024/03/16 11:36:29;;;;;;;3.70;1.10;;;;;;;12.56;83.88;96886.06;2077460;28;20197;-62
2024/03/16 11:37:29;;;;;;;2.35;0.82;;;;;;;12.36;84.89;96881.78;2079586;28;20211;-63
2024/03/16 11:38:30;;;;;;;2.50;1.00;;;;;;;11.99;86.71;96888.75;2080844;28;20696;-63
2024/03/16 11:39:32;;;;;;;1.33;0.80;;;;;;;11.88;86.63;96891.81;2066191;28;20202;-62
2024/03/16 11:40:33;;;;;;;2.05;0.70;;;;;;;11.58;87.30;96877.47;2065598;28;20206;-63
2024/03/16 11:41:33;;;;;;;1.30;0.70;;;;;;;11.03;87.40;96885.09;2077416;28;20201;-63
2024/03/16 11:42:34;;;;;;;3.60;1.50;;;;;;;10.82;89.62;96889.47;2076174;28;20232;-62
2024/03/16 11:43:35;;;;;;;1.83;1.03;;;;;;;10.72;90.42;96889.84;2081332;28;20450;-62
2024/03/16 11:44:35;;;;;;;10.07;1.33;;;;;;;10.71;92.08;96889.91;2080864;28;20651;-62
2024/03/16 11:45:36;;;;;;;1.50;0.70;;;;;;;10.60;92.52;96887.72;2072191;28;20209;-63
2024/03/16 11:46:37;;;;;;;2.45;1.00;;;;;;;10.60;92.95;96886.00;2073823;28;20707;-62
2024/03/16 11:47:38;;;;;;;2.00;1.10;;;;;;;10.91;94.14;96892.53;2077688;28;20282;-62
2024/03/16 11:48:42;;;;;;;4.70;1.37;;;;;;;11.08;94.41;96886.63;2081603;28;20696;-63
2024/03/16 11:49:42;;;;;;;3.35;1.10;;;;;;;11.10;93.32;96890.00;2083014;28;20263;-62
2024/03/16 11:50:43;;;;;;;3.37;1.00;;;;;;;11.99;91.37;96883.53;2085648;28;20709;-63
2024/03/16 11:51:48;;;;;;;3.58;1.80;;;;;;;12.19;89.44;96883.44;2073101;28;20205;-63
2024/03/16 11:52:49;;;;;;;4.07;1.55;;;;;;;12.19;90.07;96887.78;2076854;28;20288;-63
2024/03/16 11:53:49;;;;;;;3.63;2.00;;;;;;;12.02;89.90;96891.22;2077366;28;20288;-63
2024/03/16 11:54:50;;;;;;;2.10;1.10;;;;;;;11.93;89.62;96888.09;2073765;28;20228;-63
2024/03/16 11:55:50;;;;;;;5.03;1.87;;;;;;;12.09;88.60;96879.56;2076115;28;20549;-63
2024/03/16 11:56:51;;;;;;;2.77;1.23;;;;;;;12.15;88.15;96891.50;2071461;28;20213;-63
2024/03/16 11:57:52;;;;;;;3.33;1.30;;;;;;;12.65;84.07;96893.44;2071578;28;20241;-63
2024/03/16 11:58:54;;;;;;;2.20;0.97;;;;;;;12.96;83.47;96889.28;2077219;28;20252;-63
2024/03/16 11:59:55;;;;;;;3.42;0.90;;;;;;;13.00;83.08;96882.13;2074285;28;20450;-63
2024/03/16 12:00:57;;;;;;;1.73;0.80;;;;;;;14.58;81.10;96889.50;2076169;28;20209;-63
2024/03/16 12:01:57;;;;;;;2.30;1.00;;;;;;;14.11;78.59;96880.75;2068770;28;20568;-64
2024/03/16 12:03:06;;;;;;;2.97;1.60;;;;;;;14.27;79.48;96891.22;2062689;28;20225;-63
2024/03/16 12:04:09;;;;;;;3.33;1.60;;;;;;;14.17;78.99;96883.00;2065511;28;20246;-63
2024/03/16 12:05:10;;;;;;;1.52;0.80;;;;;;;13.47;81.25;96878.00;2072144;28;20257;-63
2024/03/16 12:06:12;;;;;;;2.42;1.30;;;;;;;13.38;79.54;96882.81;2072130;28;20214;-69
2024/03/16 12:07:13;;;;;;;4.82;2.50;;;;;;;12.91;81.77;96886.06;2060550;28;20213;-69
2024/03/16 12:08:15;;;;;;;4.43;2.70;;;;;;;12.35;81.26;96872.22;2052093;28;20254;-68
2024/03/16 12:09:17;;;;;;;2.85;1.02;;;;;;;12.03;83.10;96887.69;2072594;28;20413;-69
2024/03/16 12:10:19;;;;;;;8.70;4.65;;;;;;;11.83;84.86;96883.34;2072148;28;20244;-64
2024/03/16 12:11:20;;;;;;;7.32;3.67;;;;;;;12.15;86.00;96889.72;2077860;28;20631;-65
2024/03/16 12:12:21;;;;;;;9.83;4.40;;;;;;;12.17;86.45;96872.16;2079965;28;20205;-65
2024/03/16 12:13:22;;;;;;;3.20;1.67;;;;;;;12.68;84.02;96882.81;2070996;28;20226;-65
2024/03/16 12:14:22;;;;;;;1.23;0.80;;;;;;;12.61;81.91;96885.81;2068645;28;20787;-66
2024/03/16 12:15:25;;;;;;;1.70;0.80;;;;;;;12.95;81.81;96886.75;2066600;28;20448;-61
2024/03/16 12:16:26;;;;;;;2.15;0.80;;;;;;;13.09;81.63;96881.69;2079852;28;20205;-61
2024/03/16 12:17:26;;;;;;;1.70;0.70;;;;;;;12.70;82.01;96886.22;2064167;28;20213;-61
2024/03/16 12:18:27;;;;;;;1.80;0.80;;;;;;;12.27;82.36;96888.28;2060728;28;20219;-60
2024/03/16 12:19:28;;;;;;;2.40;0.95;;;;;;;12.11;82.98;96885.53;2068806;28;20210;-61
2024/03/16 12:20:28;;;;;;;1.97;0.73;;;;;;;12.05;83.83;96875.38;2069510;28;20222;-61
2024/03/16 12:21:29;;;;;;;1.30;0.80;;;;;;;11.62;84.10;96886.03;2071777;28;20280;-61
2024/03/16 12:22:30;;;;;;;3.00;1.03;;;;;;;11.53;86.72;96899.47;2071876;28;20518;-61
2024/03/16 12:23:36;;;;;;;1.40;0.85;;;;;;;11.55;87.23;96887.19;2064387;28;20214;-60
2024/03/16 12:24:36;;;;;;;2.00;1.15;;;;;;;11.60;89.10;96888.72;2065367;28;20206;-60
2024/03/16 12:25:38;;;;;;;2.03;0.90;;;;;;;11.41;87.96;96906.13;2072215;28;20247;-61
2024/03/16 12:26:40;;;;;;;2.75;1.00;;;;;;;11.37;87.96;96897.56;2072456;28;20201;-61
2024/03/16 12:27:42;;;;;;;2.95;1.30;;;;;;;11.28;87.26;96897.97;2062848;28;20289;-60
2024/03/16 12:28:45;;;;;;;2.15;0.90;;;;;;;11.59;88.41;96905.31;2054787;28;20659;-60
2024/03/16 12:29:45;;;;;;;3.67;1.00;;;;;;;11.72;87.28;96903.00;2062609;28;20546;-61
2024/03/16 12:30:46;;;;;;;3.10;0.80;;;;;;;11.77;87.28;96895.78;2068596;28;20213;-61
2024/03/16 12:31:57;;;;;;;1.20;0.70;;;;;;;11.87;86.35;96904.06;2068828;28;20357;-61
2024/03/16 12:32:58;;;;;;;1.30;0.70;;;;;;;12.53;83.94;96894.03;2061363;28;20233;-65
2024/03/16 12:34:00;;;;;;;1.30;0.70;;;;;;;12.62;85.72;96900.59;2064183;28;20241;-65
2024/03/16 12:35:02;;;;;;;2.10;0.90;;;;;;;12.50;84.76;96897.66;2075277;28;20206;-66
2024/03/16 12:36:02;;;;;;;1.88;0.80;;;;;;;12.26;83.80;96889.22;2077783;28;20201;-66
2024/03/16 12:37:03;;;;;;;1.93;0.80;;;;;;;12.29;84.60;96894.31;2071579;28;20296;-65
2024/03/16 12:38:04;;;;;;;1.40;0.90;;;;;;;12.35;85.13;96901.03;2078849;28;20347;-66
2024/03/16 12:39:08;;;;;;;2.20;0.73;;;;;;;12.13;83.67;96894.19;2076238;28;20205;-66
2024/03/16 12:40:11;;;;;;;1.38;0.73;;;;;;;11.81;84.61;96909.56;2072092;28;20209;-65
2024/03/16 12:41:11;;;;;;;3.13;0.88;;;;;;;11.69;85.31;96897.03;2081482;28;20211;-66
2024/03/16 12:42:12;;;;;;;3.67;1.33;;;;;;;11.66;85.41;96884.13;2076034;28;20259;-66
2024/03/16 12:43:12;;;;;;;1.97;0.73;;;;;;;12.08;85.35;96897.00;2077426;28;20752;-66
2024/03/16 12:44:13;;;;;;;1.20;0.70;;;;;;;12.07;85.07;96900.56;2077278;28;20236;-65
2024/03/16 12:45:13;;;;;;;1.40;0.80;;;;;;;12.36;85.14;96897.47;2068927;28;20678;-66
2024/03/16 12:46:14;;;;;;;1.50;0.90;;;;;;;12.55;85.71;96905.31;2068355;28;20872;-66
2024/03/16 12:47:14;;;;;;;1.60;1.10;;;;;;;12.62;86.07;96898.84;2067900;28;20337;-66
2024/03/16 12:48:16;;;;;;;1.60;0.80;;;;;;;13.40;83.28;96906.34;2060498;28;20763;-66
2024/03/16 12:49:17;;;;;;;3.25;1.90;;;;;;;13.42;80.91;96880.03;2069069;28;20214;-66
2024/03/16 12:50:17;;;;;;;17.70;10.33;;;;;;;13.75;82.48;96889.66;2077294;28;20205;-66
2024/03/16 12:51:19;;;;;;;4.03;2.00;;;;;;;13.71;81.92;96888.97;2069731;28;20202;-65
2024/03/16 12:52:23;;;;;;;12.77;5.10;;;;;;;13.13;82.00;96901.56;2069297;28;20206;-64
2024/03/16 12:53:24;;;;;;;3.25;1.85;;;;;;;12.98;83.38;96900.56;2076016;28;20216;-66
2024/03/16 12:54:24;;;;;;;15.00;10.47;;;;;;;12.91;84.25;96896.53;2076983;28;20209;-65
2024/03/16 12:55:25;;;;;;;9.10;5.80;;;;;;;12.56;82.07;96904.38;2075584;28;20443;-66
2024/03/16 12:56:25;;;;;;;3.00;1.90;;;;;;;12.46;83.98;96898.75;2073709;28;20219;-66
2024/03/16 12:57:30;;;;;;;2.83;1.30;;;;;;;12.63;83.99;96895.28;2071642;28;20780;-65
2024/03/16 12:58:31;;;;;;;4.95;1.58;;;;;;;12.60;84.59;96907.72;2067744;28;20218;-66
2024/03/16 12:59:36;;;;;;;1.80;0.97;;;;;;;12.35;84.76;96898.41;2067278;28;20202;-66
2024/03/16 13:00:37;;;;;;;4.93;1.17;;;;;;;12.50;85.05;96894.19;2075033;28;20212;-65
2024/03/16 13:01:37;;;;;;;2.70;0.90;;;;;;;12.51;84.11;96901.97;2073995;28;20205;-65
2024/03/16 13:02:38;;;;;;;2.70;1.20;;;;;;;12.63;84.01;96897.06;2063885;28;20436;-66
2024/03/16 13:03:38;;;;;;;2.00;1.00;;;;;;;12.86;84.08;96893.31;2068612;28;20256;-65
2024/03/16 13:04:39;;;;;;;4.43;1.20;;;;;;;12.60;82.81;96898.06;2069280;28;20598;-65
2024/03/16 13:05:39;;;;;;;5.90;1.13;;;;;;;12.57;83.37;96896.44;2069768;28;20285;-65
2024/03/16 13:06:40;;;;;;;1.83;1.07;;;;;;;12.28;83.01;96886.50;2076516;28;20208;-66
2024/03/16 13:07:41;;;;;;;3.53;1.23;;;;;;;11.92;83.43;96899.47;2074937;28;20202;-65
2024/03/16 13:08:42;;;;;;;4.53;1.40;;;;;;;11.63;84.26;96897.31;2070676;28;20513;-65
2024/03/16 13:09:42;;;;;;;7.53;3.30;;;;;;;11.58;85.72;96898.38;2071539;28;20580;-65
2024/03/16 13:10:43;;;;;;;2.33;1.50;;;;;;;11.53;86.56;96908.19;2071358;28;20450;-65
2024/03/16 13:11:43;;;;;;;2.10;1.10;;;;;;;11.39;85.31;96907.97;2071325;28;20628;-65
2024/03/16 13:12:44;;;;;;;3.07;1.33;;;;;;;11.32;85.96;96909.97;2075520;28;20322;-65
2024/03/16 13:13:45;;;;;;;7.33;4.40;;;;;;;11.34;86.27;96908.16;2070395;28;20702;-65
2024/03/16 13:14:47;;;;;;;5.93;2.03;;;;;;;11.37;85.62;96907.19;2071391;28;20264;-65
2024/03/16 13:15:48;;;;;;;6.93;3.97;;;;;;;11.27;84.24;96899.75;2079407;28;20208;-65
2024/03/16 13:16:48;;;;;;;8.60;3.30;;;;;;;11.46;83.16;96892.84;2076963;28;20209;-65
2024/03/16 13:17:49;;;;;;;7.97;3.47;;;;;;;12.04;81.62;96899.84;2067095;28;20256;-65
2024/03/16 13:18:51;;;;;;;4.90;2.83;;;;;;;13.22;79.80;96897.63;2067339;28;20717;-65
2024/03/16 13:19:52;;;;;;;4.07;2.22;;;;;;;13.39;77.69;96900.25;2067429;28;20490;-65
2024/03/16 13:20:52;;;;;;;5.37;2.90;;;;;;;13.39;77.61;96894.16;2076547;28;20251;-66
2024/03/16 13:21:53;;;;;;;2.03;1.33;;;;;;;12.89;78.10;96898.41;2076024;28;20438;-66
2024/03/16 13:22:53;;;;;;;2.33;1.00;;;;;;;12.57;78.57;96906.09;2070083;28;20225;-65
2024/03/16 13:23:54;;;;;;;3.80;2.60;;;;;;;12.66;79.85;96905.63;2076183;28;20614;-65
2024/03/16 13:24:55;;;;;;;5.20;3.10;;;;;;;12.27;79.36;96895.31;2076046;28;20312;-60
2024/03/16 13:25:55;;;;;;;2.90;1.57;;;;;;;11.95;80.26;96903.72;2071174;28;20205;-61
2024/03/16 13:26:56;;;;;;;2.17;1.27;;;;;;;11.74;81.27;96901.16;2069194;28;20210;-61
2024/03/16 13:27:57;;;;;;;3.20;1.27;;;;;;;11.70;81.49;96894.34;2073074;28;20584;-60
2024/03/16 13:28:57;;;;;;;2.63;1.17;;;;;;;11.68;81.67;96901.44;2073987;28;20656;-60
2024/03/16 13:29:58;;;;;;;3.33;1.20;;;;;;;11.47;81.92;96890.16;2068615;28;20732;-61
2024/03/16 13:30:58;;;;;;;6.60;1.50;;;;;;;11.76;82.67;96904.53;2063126;28;20221;-60
2024/03/16 13:31:59;;;;;;;2.73;1.17;;;;;;;11.79;82.13;96903.56;2062414;28;20206;-62
2024/03/16 13:32:59;;;;;;;3.20;1.13;;;;;;;12.52;81.33;96903.69;2073025;28;20284;-61
2024/03/16 13:34:00;;;;;;;2.27;1.03;;;;;;;12.30;78.85;96900.38;2059172;28;20210;-61
2024/03/16 13:35:01;;;;;;;2.60;1.30;;;;;;;12.07;79.51;96902.31;2057545;28;20202;-61
2024/03/16 13:36:01;;;;;;;3.40;1.10;;;;;;;11.99;80.32;96907.06;2073042;28;20217;-61
2024/03/16 13:37:02;;;;;;;3.57;1.13;;;;;;;11.91;79.70;96908.22;2074990;28;20575;-60
2024/03/16 13:38:06;;;;;;;2.00;1.00;;;;;;;11.89;80.92;96914.47;2067131;28;20234;-60
2024/03/16 13:39:07;;;;;;;4.15;2.00;;;;;;;11.43;80.76;96893.84;2067652;28;20493;-61
2024/03/16 13:40:08;;;;;;;3.58;1.20;;;;;;;11.40;80.33;96905.28;2069685;28;20206;-61
2024/03/16 13:41:12;;;;;;;6.28;2.78;;;;;;;11.55;81.63;96918.59;2071310;28;20225;-60
2024/03/16 13:42:13;;;;;;;11.43;4.93;;;;;;;11.58;81.75;96910.63;2069878;28;20217;-60
2024/03/16 13:43:14;;;;;;;12.77;5.00;;;;;;;11.36;81.68;96914.16;2082029;28;20209;-60
2024/03/16 13:44:14;;;;;;;5.67;2.73;;;;;;;11.25;82.03;96909.41;2082845;28;20956;-60
2024/03/16 13:45:15;;;;;;;3.23;1.50;;;;;;;11.15;82.23;96910.72;2076697;28;21024;-61
2024/03/16 13:46:19;;;;;;;2.80;1.13;;;;;;;11.16;82.07;96904.59;2069369;28;20267;-61
2024/03/16 13:47:21;;;;;;;4.65;1.30;;;;;;;11.21;82.93;96914.81;2067737;28;20462;-61
2024/03/16 13:48:22;;;;;;;4.80;1.02;;;;;;;11.11;82.15;96922.22;2057100;28;20231;-60
2024/03/16 13:49:22;;;;;;;1.50;0.87;;;;;;;11.12;83.00;96923.91;2049841;28;20215;-60
2024/03/16 13:50:23;;;;;;;2.63;1.00;;;;;;;11.23;82.92;96924.28;2066259;28;20214;-60
2024/03/16 13:51:29;;;;;;;1.70;0.90;;;;;;;11.23;82.31;96911.22;2075455;28;20247;-61
2024/03/16 13:52:30;;;;;;;1.20;0.88;;;;;;;11.38;82.04;96924.56;2066820;28;20205;-61
2024/03/16 13:53:31;;;;;;;1.73;0.90;;;;;;;11.73;81.58;96935.22;2061869;28;20237;-60
2024/03/16 13:54:31;;;;;;;2.07;1.13;;;;;;;11.72;80.15;96931.78;2074298;28;20669;-60
2024/03/16 13:55:32;;;;;;;2.43;1.30;;;;;;;11.50;80.36;96920.56;2074062;28;20736;-60
2024/03/16 13:56:33;;;;;;;2.25;0.98;;;;;;;11.62;80.67;96922.63;2067824;28;20689;-65
2024/03/16 13:57:33;;;;;;;1.83;0.80;;;;;;;11.71;80.55;96913.53;2075626;28;20208;-63
2024/03/16 13:58:34;;;;;;;4.67;1.17;;;;;;;11.85;79.97;96913.75;2073099;28;20282;-65
2024/03/16 13:59:34;;;;;;;3.57;1.10;;;;;;;11.95;80.26;96913.31;2066493;28;20209;-65
2024/03/16 14:00:35;;;;;;;6.50;1.30;;;;;;;11.88;79.74;96907.53;2067233;28;20229;-65
2024/03/16 14:01:37;;;;;;;1.95;1.00;;;;;;;11.90;79.56;96908.31;2065544;28;20206;-65
2024/03/16 14:02:39;;;;;;;2.50;1.20;;;;;;;11.82;79.81;96916.50;2065880;28;20206;-65
2024/03/16 14:03:39;;;;;;;1.55;0.80;;;;;;;11.69;79.29;96915.34;2068986;28;20214;-65
2024/03/16 14:04:42;;;;;;;1.53;0.90;;;;;;;11.96;79.12;96915.91;2068133;28;20210;-65
2024/03/16 14:05:42;;;;;;;1.63;1.00;;;;;;;12.08;78.75;96907.47;2060939;28;20210;-65
2024/03/16 14:06:43;;;;;;;2.17;0.83;;;;;;;11.95;77.64;96921.16;2059089;28;20207;-65
2024/03/16 14:07:43;;;;;;;1.23;0.70;;;;;;;12.77;75.99;96912.13;2060289;28;20209;-65
2024/03/16 14:08:45;;;;;;;1.97;0.90;;;;;;;13.44;74.38;96921.00;2070882;28;20768;-65
2024/03/16 14:09:46;;;;;;;2.28;0.80;;;;;;;13.53;73.02;96912.66;2071137;28;20210;-65
2024/03/16 14:10:47;;;;;;;2.75;0.70;;;;;;;13.85;72.29;96911.84;2076595;28;20207;-65
2024/03/16 14:11:47;;;;;;;1.73;0.80;;;;;;;13.60;72.14;96905.31;2077376;28;20911;-65
2024/03/16 14:12:53;;;;;;;2.90;0.80;;;;;;;13.82;70.32;96912.03;2074160;28;20220;-60
2024/03/16 14:13:55;;;;;;;1.70;0.80;;;;;;;14.26;71.09;96905.28;2072057;28;20209;-60
2024/03/16 14:14:56;;;;;;;1.70;0.80;;;;;;;14.11;70.73;96912.25;2076321;28;20213;-60
2024/03/16 14:15:56;;;;;;;1.43;0.77;;;;;;;13.84;70.08;96910.16;2066719;28;20260;-63
2024/03/16 14:16:57;;;;;;;3.90;0.80;;;;;;;13.89;68.93;96905.53;2068644;28;20217;-64
2024/03/16 14:17:58;;;;;;;2.55;0.90;;;;;;;14.07;68.76;96910.69;2055147;28;20230;-63
2024/03/16 14:18:59;;;;;;;1.70;0.80;;;;;;;13.79;70.33;96905.19;2069498;28;20217;-65
2024/03/16 14:19:59;;;;;;;5.50;0.90;;;;;;;13.62;70.22;96919.19;2069943;28;20443;-65
2024/03/16 14:21:04;;;;;;;1.50;0.70;;;;;;;13.53;69.86;96917.03;2066496;28;20235;-65
2024/03/16 14:22:04;;;;;;;1.42;0.70;;;;;;;13.48;70.19;96922.53;2067059;28;20210;-65
2024/03/16 14:23:05;;;;;;;1.00;0.50;;;;;;;13.23;70.74;96907.19;2066158;28;20225;-65
2024/03/16 14:24:06;;;;;;;3.20;0.70;;;;;;;12.98;71.16;96925.94;2068664;28;20255;-65
2024/03/16 14:25:07;;;;;;;2.85;0.73;;;;;;;12.73;72.14;96920.13;2068732;28;20267;-64
2024/03/16 14:26:07;;;;;;;1.20;0.70;;;;;;;12.39;72.84;96923.50;2068595;28;20248;-65
2024/03/16 14:27:08;;;;;;;2.83;0.70;;;;;;;12.25;72.76;96922.41;2075120;28;20201;-64
2024/03/16 14:28:08;;;;;;;1.60;0.70;;;;;;;11.87;73.94;96877.03;2074449;28;20224;-64
2024/03/16 14:29:09;;;;;;;1.60;0.73;;;;;;;11.86;74.25;96912.84;2066113;28;20210;-64
2024/03/16 14:30:12;;;;;;;1.20;0.70;;;;;;;11.91;75.35;96918.69;2066990;28;20211;-65